Time;durP1;ratioP1;P1;durP2;ratioP2;P2;SDS_P1;SDS_P2;PMS_P1;PMS_P2;Temp;Humidity;BMP_temperature;BMP_pressure;BME280_temperature;BME280_humidity;BME280_pressure;Samples;Min_cycle;Max_cycle;Signal;HPM_P1;HPM_P2
2023/06/04 00:02:28;;;;;;;7.40;5.57;;;;;;;10.81;100.00;102316.75;5011234;28;20429;-41
2023/06/04 00:04:56;;;;;;;12.80;6.10;;;;;;;10.77;100.00;102314.59;5010251;28;20513;-43
2023/06/04 00:07:24;;;;;;;14.80;6.20;;;;;;;10.73;100.00;102310.56;5010875;28;20640;-43
2023/06/04 00:09:53;;;;;;;12.10;6.30;;;;;;;10.72;100.00;102315.06;4985327;28;20978;-45
2023/06/04 00:12:21;;;;;;;9.60;5.93;;;;;;;10.65;100.00;102305.19;5010330;28;20532;-45
2023/06/04 00:14:49;;;;;;;10.23;6.97;;;;;;;10.65;100.00;102310.53;5011562;28;20509;-44
2023/06/04 00:17:16;;;;;;;14.77;7.17;;;;;;;10.66;100.00;102309.53;5010053;28;20548;-46
2023/06/04 00:19:45;;;;;;;7.93;6.03;;;;;;;10.64;100.00;102303.50;4984471;28;20518;-44
2023/06/04 00:22:13;;;;;;;7.77;5.90;;;;;;;10.62;100.00;102308.16;5010666;28;20803;-44
2023/06/04 00:24:41;;;;;;;8.63;6.50;;;;;;;10.59;100.00;102312.00;5009877;28;20425;-46
2023/06/04 00:27:09;;;;;;;11.10;5.77;;;;;;;10.56;100.00;102304.31;5011466;28;20457;-45
2023/06/04 00:29:37;;;;;;;18.30;7.00;;;;;;;10.58;100.00;102312.97;5005014;28;20921;-45
2023/06/04 00:32:05;;;;;;;13.87;6.00;;;;;;;10.52;100.00;102309.13;5029715;28;20440;-43
2023/06/04 00:34:33;;;;;;;10.20;6.30;;;;;;;10.48;100.00;102312.28;5029400;28;20483;-46
2023/06/04 00:37:02;;;;;;;10.57;5.60;;;;;;;10.45;100.00;102304.59;5029529;28;20498;-45
2023/06/04 00:39:30;;;;;;;8.10;5.47;;;;;;;10.47;100.00;102302.59;5029912;28;20460;-43
2023/06/04 00:41:58;;;;;;;12.07;5.93;;;;;;;10.43;100.00;102301.22;5011306;28;20499;-45
2023/06/04 00:44:26;;;;;;;10.13;6.83;;;;;;;10.34;100.00;102299.50;5029277;28;20938;-43
2023/06/04 00:46:54;;;;;;;11.73;6.10;;;;;;;10.37;100.00;102300.03;5029374;28;20459;-43
2023/06/04 00:49:22;;;;;;;10.70;5.70;;;;;;;10.32;100.00;102301.50;5029687;28;20432;-44
2023/06/04 00:51:51;;;;;;;8.17;5.73;;;;;;;10.37;100.00;102297.38;5003593;28;20491;-47
2023/06/04 00:54:20;;;;;;;10.13;6.90;;;;;;;10.30;100.00;102301.66;5029076;28;20512;-47
2023/06/04 00:56:48;;;;;;;15.17;5.53;;;;;;;10.28;100.00;102300.97;5029425;28;20455;-48
2023/06/04 00:59:17;;;;;;;10.73;5.20;;;;;;;10.21;100.00;102294.59;5029126;28;20436;-46
2023/06/04 01:01:50;;;;;;;12.43;5.90;;;;;;;10.32;100.00;102296.16;5003360;28;20461;-44
2023/06/04 01:04:24;;;;;;;7.30;4.93;;;;;;;10.31;100.00;102292.66;5028845;28;20498;-47
2023/06/04 01:06:57;;;;;;;9.10;5.37;;;;;;;10.26;100.00;102288.78;5029268;28;20446;-43
2023/06/04 01:09:27;;;;;;;9.00;5.00;;;;;;;10.29;100.00;102299.16;5028997;28;20495;-44
2023/06/04 01:11:58;;;;;;;8.10;6.30;;;;;;;10.26;100.00;102300.28;5004197;28;20475;-46
2023/06/04 01:14:26;;;;;;;16.33;6.33;;;;;;;10.25;100.00;102298.63;5029186;28;20476;-43
2023/06/04 01:17:02;;;;;;;10.87;5.33;;;;;;;10.20;100.00;102300.91;5029071;28;20460;-43
2023/06/04 01:20:12;;;;;;;11.20;5.43;;;;;;;10.23;100.00;102287.28;5029070;28;20436;-43
2023/06/04 01:22:44;;;;;;;8.10;5.70;;;;;;;10.23;100.00;102299.78;5003491;28;20478;-51
2023/06/04 01:25:19;;;;;;;11.90;5.87;;;;;;;10.23;100.00;102302.44;5029156;28;20520;-44
2023/06/04 01:27:52;;;;;;;14.60;6.17;;;;;;;10.19;100.00;102295.72;5024773;28;20452;-44
2023/06/04 01:30:23;;;;;;;11.70;6.33;;;;;;;10.15;100.00;102302.38;5029086;28;20830;-49
2023/06/04 01:32:52;;;;;;;13.53;5.83;;;;;;;10.13;100.00;102299.88;5003633;28;20949;-46
2023/06/04 01:35:21;;;;;;;12.93;5.80;;;;;;;10.13;100.00;102299.88;5028850;28;20476;-44
2023/06/04 01:37:48;;;;;;;5.80;5.30;;;;;;;10.15;100.00;102300.56;5028258;28;21148;-44
2023/06/04 01:40:18;;;;;;;8.30;4.97;;;;;;;10.13;100.00;102293.66;5033122;28;20436;-47
2023/06/04 01:42:45;;;;;;;8.40;5.07;;;;;;;10.07;100.00;102297.78;5032599;28;20505;-46
2023/06/04 01:45:13;;;;;;;16.13;7.00;;;;;;;10.05;100.00;102297.13;5005454;28;20992;-44
2023/06/04 01:47:41;;;;;;;10.13;5.37;;;;;;;10.02;100.00;102300.94;5033315;28;20575;-44
2023/06/04 01:50:09;;;;;;;9.53;6.10;;;;;;;10.02;100.00;102305.41;5033417;28;20486;-46
2023/06/04 01:52:37;;;;;;;6.83;4.80;;;;;;;9.98;100.00;102299.56;5032668;28;20439;-43
2023/06/04 01:55:07;;;;;;;9.90;5.10;;;;;;;10.01;100.00;102295.75;5006690;28;20487;-44
2023/06/04 01:57:36;;;;;;;11.43;6.67;;;;;;;9.96;100.00;102298.88;5032548;28;20495;-44
2023/06/04 02:00:08;;;;;;;10.53;5.37;;;;;;;9.94;100.00;102302.69;5032829;28;20522;-43
2023/06/04 02:02:37;;;;;;;8.87;5.70;;;;;;;9.95;100.00;102302.53;5031856;28;20513;-43
2023/06/04 02:05:07;;;;;;;10.50;5.90;;;;;;;9.95;100.00;102299.03;5007091;28;20488;-43
2023/06/04 02:07:38;;;;;;;11.83;5.80;;;;;;;9.91;100.00;102300.34;5032433;28;21047;-43
2023/06/04 02:10:06;;;;;;;11.20;6.20;;;;;;;9.92;100.00;102300.19;5031672;28;20443;-44
2023/06/04 02:12:37;;;;;;;8.60;6.43;;;;;;;9.89;100.00;102307.63;5032454;28;20489;-43
2023/06/04 02:15:07;;;;;;;8.30;5.87;;;;;;;9.89;100.00;102305.81;5006596;28;20495;-43
2023/06/04 02:17:39;;;;;;;15.73;7.13;;;;;;;9.83;100.00;102298.44;5031484;28;20470;-42
2023/06/04 02:20:09;;;;;;;9.73;5.40;;;;;;;9.82;100.00;102306.59;5032338;28;20490;-43
2023/06/04 02:22:38;;;;;;;11.00;5.37;;;;;;;9.83;100.00;102305.59;5032436;28;20440;-45
2023/06/04 02:25:08;;;;;;;10.37;5.60;;;;;;;9.84;100.00;102305.44;5027518;28;20481;-43
2023/06/04 02:27:38;;;;;;;14.90;6.90;;;;;;;9.83;100.00;102311.75;5031637;28;20456;-46
2023/06/04 02:30:07;;;;;;;7.17;6.27;;;;;;;9.79;100.00;102313.06;5032350;28;20443;-45
2023/06/04 02:32:35;;;;;;;17.87;7.80;;;;;;;9.79;100.00;102313.06;5031910;28;20432;-46
2023/06/04 02:35:04;;;;;;;15.73;7.70;;;;;;;9.83;100.00;102313.56;5031711;28;20471;-43
2023/06/04 02:37:32;;;;;;;13.20;6.77;;;;;;;9.80;100.00;102311.22;5018766;28;20468;-43
2023/06/04 02:39:59;;;;;;;10.17;6.93;;;;;;;9.81;100.00;102318.22;5032378;28;20436;-48
2023/06/04 02:42:27;;;;;;;13.00;6.83;;;;;;;9.80;100.00;102316.56;5031872;28;20467;-43
2023/06/04 02:44:56;;;;;;;14.37;7.60;;;;;;;9.82;100.00;102322.59;5032046;28;20428;-44
2023/06/04 02:47:24;;;;;;;9.83;6.30;;;;;;;9.82;100.00;102318.09;5005649;28;20468;-44
2023/06/04 02:49:52;;;;;;;8.73;6.70;;;;;;;9.83;100.00;102324.25;5030901;28;20432;-44
2023/06/04 02:52:22;;;;;;;14.30;6.63;;;;;;;9.81;100.00;102321.75;5032005;28;20432;-45
2023/06/04 02:54:50;;;;;;;9.30;5.70;;;;;;;9.81;100.00;102327.06;5031413;28;20476;-42
2023/06/04 02:57:18;;;;;;;9.37;6.50;;;;;;;9.84;100.00;102317.94;5006223;28;20514;-46
2023/06/04 02:59:45;;;;;;;6.43;5.73;;;;;;;9.86;100.00;102326.59;5031377;28;20523;-45
2023/06/04 03:02:14;;;;;;;12.37;6.10;;;;;;;9.86;100.00;102319.44;5031286;28;20495;-46
2023/06/04 03:04:44;;;;;;;10.77;5.90;;;;;;;9.87;100.00;102320.28;5031359;28;20474;-43
2023/06/04 03:07:12;;;;;;;11.60;6.20;;;;;;;9.88;100.00;102327.31;5006119;28;20562;-43
2023/06/04 03:09:40;;;;;;;9.33;5.93;;;;;;;9.91;100.00;102313.66;5031163;28;20432;-43
2023/06/04 03:12:08;;;;;;;11.60;6.53;;;;;;;9.92;100.00;102320.66;5030970;28;20798;-45
2023/06/04 03:14:36;;;;;;;8.87;6.30;;;;;;;9.93;100.00;102317.84;5031290;28;20472;-43
2023/06/04 03:17:10;;;;;;;11.10;5.87;;;;;;;9.93;100.00;102319.66;5005684;28;20502;-43
2023/06/04 03:19:40;;;;;;;12.33;6.50;;;;;;;9.91;100.00;102327.00;5031466;28;20845;-44
2023/06/04 03:22:10;;;;;;;14.20;6.80;;;;;;;10.00;100.00;102320.75;5031411;28;20432;-44
2023/06/04 03:24:40;;;;;;;6.17;5.20;;;;;;;10.19;100.00;102319.72;5031141;28;20435;-43
2023/06/04 03:27:08;;;;;;;8.73;6.60;;;;;;;10.55;100.00;102322.16;5000973;28;20870;-44
2023/06/04 03:29:37;;;;;;;11.03;6.33;;;;;;;10.59;100.00;102316.50;5030710;28;20444;-43
2023/06/04 03:32:05;;;;;;;8.47;6.03;;;;;;;10.65;100.00;102319.38;5030632;28;20460;-43
2023/06/04 03:34:33;;;;;;;10.40;6.50;;;;;;;10.61;100.00;102314.50;5030694;28;20443;-45
2023/06/04 03:37:04;;;;;;;9.00;5.37;;;;;;;10.59;100.00;102319.16;5030644;28;20440;-43
2023/06/04 03:39:31;;;;;;;11.10;5.57;;;;;;;10.54;100.00;102315.13;5005270;28;20546;-44
2023/06/04 03:41:59;;;;;;;7.67;5.90;;;;;;;10.57;100.00;102313.16;5031073;28;20489;-43
2023/06/04 03:44:27;;;;;;;9.33;6.03;;;;;;;10.55;100.00;102314.13;5030951;28;20464;-43
2023/06/04 03:46:54;;;;;;;9.60;5.73;;;;;;;10.61;100.00;102318.00;5030935;28;20491;-44
2023/06/04 03:49:22;;;;;;;8.53;5.73;;;;;;;10.66;100.00;102313.06;5005017;28;20460;-44
2023/06/04 03:51:50;;;;;;;6.23;5.63;;;;;;;10.68;100.00;102311.03;5030127;28;20498;-44
2023/06/04 03:54:20;;;;;;;8.77;5.30;;;;;;;10.71;100.00;102310.72;5030595;28;20494;-43
2023/06/04 03:56:48;;;;;;;11.43;5.80;;;;;;;10.71;100.00;102317.88;5030837;28;20951;-45
2023/06/04 03:59:16;;;;;;;9.60;4.90;;;;;;;10.77;100.00;102317.25;5005523;28;20977;-46
2023/06/04 04:01:44;;;;;;;9.60;5.80;;;;;;;10.88;100.00;102307.13;5029738;28;20459;-43
2023/06/04 04:04:12;;;;;;;8.20;5.57;;;;;;;10.90;100.00;102299.78;5030045;28;20436;-43
2023/06/04 04:06:41;;;;;;;9.13;6.00;;;;;;;11.01;100.00;102304.84;5030295;28;20454;-43
2023/06/04 04:09:08;;;;;;;7.87;6.47;;;;;;;10.95;100.00;102302.00;5004605;28;20494;-44
2023/06/04 04:11:37;;;;;;;6.27;5.70;;;;;;;10.94;100.00;102301.16;5030183;28;20432;-43
2023/06/04 04:14:05;;;;;;;9.90;5.80;;;;;;;11.04;100.00;102301.03;5030264;28;20432;-44
2023/06/04 04:16:33;;;;;;;11.87;6.03;;;;;;;11.12;100.00;102309.06;5029277;28;20480;-46
2023/06/04 04:19:01;;;;;;;7.73;5.40;;;;;;;11.18;100.00;102297.72;5004664;28;20464;-44
2023/06/04 04:21:29;;;;;;;11.23;5.50;;;;;;;11.27;100.00;102310.09;5029835;28;20455;-45
2023/06/04 04:23:56;;;;;;;13.03;6.30;;;;;;;11.39;100.00;102305.28;5030007;28;20501;-45
2023/06/04 04:26:27;;;;;;;8.77;5.40;;;;;;;12.08;100.00;102296.84;5030048;28;20452;-47
2023/06/04 04:28:57;;;;;;;12.80;6.60;;;;;;;13.18;100.00;102300.38;5015377;28;20515;-46
2023/06/04 04:31:26;;;;;;;7.73;5.27;;;;;;;14.06;100.00;102289.16;4989392;28;20449;-44
2023/06/04 04:33:56;;;;;;;15.23;5.37;;;;;;;14.84;100.00;102286.84;4991259;28;20492;-41
2023/06/04 04:36:24;;;;;;;9.40;5.07;;;;;;;15.59;100.00;102283.81;4990321;28;20486;-42
2023/06/04 04:38:54;;;;;;;13.37;4.70;;;;;;;16.20;100.00;102279.53;4990415;28;20473;-46
2023/06/04 04:41:22;;;;;;;5.63;4.70;;;;;;;16.60;100.00;102284.19;4973934;28;20473;-44
2023/06/04 04:43:50;;;;;;;11.63;5.30;;;;;;;17.16;100.00;102276.75;4990523;28;20429;-41
2023/06/04 04:46:19;;;;;;;6.20;4.63;;;;;;;17.74;100.00;102279.81;4989969;28;20498;-42
2023/06/04 04:48:47;;;;;;;11.83;4.90;;;;;;;17.91;96.96;102286.47;4990003;28;20457;-42
2023/06/04 04:51:15;;;;;;;6.07;4.80;;;;;;;18.48;99.29;102285.78;4964728;28;20523;-45
2023/06/04 04:53:43;;;;;;;5.20;4.03;;;;;;;18.55;90.85;102286.63;4990336;28;20441;-42
2023/06/04 04:56:10;;;;;;;9.40;4.93;;;;;;;18.92;84.52;102287.75;4989768;28;20505;-42
2023/06/04 04:58:38;;;;;;;5.63;4.20;;;;;;;19.16;81.35;102284.31;4990338;28;20430;-42
2023/06/04 05:01:06;;;;;;;9.80;4.93;;;;;;;19.07;74.03;102297.25;4971934;28;20556;-42
2023/06/04 05:03:35;;;;;;;6.30;4.50;;;;;;;19.02;80.06;102290.84;4989498;28;20437;-42
2023/06/04 05:06:03;;;;;;;5.50;4.47;;;;;;;19.29;83.30;102287.75;4990161;28;20773;-42
2023/06/04 05:08:31;;;;;;;7.33;4.80;;;;;;;19.21;75.39;102290.72;4989996;28;20467;-45
2023/06/04 05:10:59;;;;;;;6.60;5.40;;;;;;;19.58;75.32;102289.09;4971722;28;20994;-47
2023/06/04 05:13:26;;;;;;;6.40;5.40;;;;;;;19.95;71.90;102281.91;4989343;28;20434;-42
2023/06/04 05:15:54;;;;;;;9.33;4.80;;;;;;;19.98;68.73;102281.47;4989908;28;20474;-43
2023/06/04 05:18:28;;;;;;;8.70;4.47;;;;;;;20.31;74.39;102279.34;4989679;28;21076;-42
2023/06/04 05:20:59;;;;;;;6.47;4.77;;;;;;;20.47;69.65;102286.06;4965964;28;20473;-45
2023/06/04 05:23:27;;;;;;;8.47;4.50;;;;;;;20.74;66.87;102282.00;4989144;28;20936;-44
2023/06/04 05:25:55;;;;;;;6.43;4.23;;;;;;;20.54;63.31;102278.69;5007129;28;20471;-42
2023/06/04 05:28:25;;;;;;;5.10;4.60;;;;;;;20.70;63.20;102285.38;5019495;28;20890;-42
2023/06/04 05:30:59;;;;;;;7.37;5.47;;;;;;;21.14;63.51;102281.53;5029234;28;20432;-42
2023/06/04 05:33:27;;;;;;;7.70;4.33;;;;;;;20.93;60.54;102283.66;5002209;28;20435;-43
2023/06/04 05:35:57;;;;;;;6.40;4.30;;;;;;;21.08;61.77;102282.41;5029362;28;20621;-45
2023/06/04 05:38:26;;;;;;;9.13;4.80;;;;;;;21.03;61.42;102293.94;5028992;28;20814;-43
2023/06/04 05:40:55;;;;;;;6.73;4.10;;;;;;;20.81;59.13;102292.78;5028858;28;21024;-43
2023/06/04 05:43:23;;;;;;;7.03;4.87;;;;;;;20.42;63.80;102286.75;5004011;28;20467;-45
2023/06/04 05:45:51;;;;;;;7.77;4.60;;;;;;;20.77;61.40;102288.84;5028871;28;20477;-42
2023/06/04 05:48:19;;;;;;;5.20;4.20;;;;;;;20.85;60.51;102286.66;5028231;28;20485;-42
2023/06/04 05:50:47;;;;;;;4.60;4.20;;;;;;;20.64;63.26;102291.72;5029082;28;20453;-42
2023/06/04 05:53:15;;;;;;;8.03;4.33;;;;;;;20.58;62.05;102282.59;5018388;28;20542;-42
2023/06/04 05:55:44;;;;;;;6.27;4.40;;;;;;;20.77;62.69;102286.13;5028816;28;20489;-43
2023/06/04 05:58:11;;;;;;;6.83;5.50;;;;;;;20.92;60.96;102286.56;5028186;28;20479;-47
2023/06/04 06:00:39;;;;;;;8.90;4.50;;;;;;;21.02;62.29;102288.75;5029077;28;20523;-42
2023/06/04 06:03:07;;;;;;;5.70;4.63;;;;;;;21.13;61.09;102286.13;5003648;28;20463;-45
2023/06/04 06:05:35;;;;;;;5.83;4.50;;;;;;;21.49;60.00;102286.03;5028676;28;20427;-44
2023/06/04 06:08:03;;;;;;;4.80;4.30;;;;;;;21.40;58.13;102287.41;5028970;28;20513;-46
2023/06/04 06:10:31;;;;;;;5.60;4.20;;;;;;;20.93;60.67;102286.38;5028647;28;20485;-45
2023/06/04 06:13:00;;;;;;;6.87;4.80;;;;;;;21.13;57.74;102290.72;5027891;28;20432;-43
2023/06/04 06:15:28;;;;;;;11.10;4.87;;;;;;;21.41;59.97;102289.06;5002799;28;20463;-46
2023/06/04 06:17:56;;;;;;;6.83;4.77;;;;;;;21.29;57.34;102284.66;5028700;28;21000;-43
2023/06/04 06:20:24;;;;;;;9.60;4.80;;;;;;;21.46;60.17;102288.38;5028532;28;20848;-45
2023/06/04 06:22:52;;;;;;;7.70;5.03;;;;;;;21.19;56.84;102292.53;5028373;28;20829;-44
2023/06/04 06:25:20;;;;;;;8.63;4.83;;;;;;;21.39;57.58;102287.63;5010527;28;21278;-44
2023/06/04 06:27:48;;;;;;;6.30;4.20;;;;;;;21.17;58.00;102300.06;5027146;28;20447;-45
2023/06/04 06:30:18;;;;;;;5.67;4.20;;;;;;;21.20;59.51;102291.47;5031666;28;20494;-45
2023/06/04 06:32:48;;;;;;;8.80;4.93;;;;;;;21.16;58.70;102282.97;5032418;28;20928;-48
2023/06/04 06:35:16;;;;;;;6.73;4.60;;;;;;;21.53;57.76;102283.69;5009210;28;20478;-43
2023/06/04 06:37:43;;;;;;;8.27;4.60;;;;;;;21.37;58.32;102287.06;5031400;28;20565;-45
2023/06/04 06:40:12;;;;;;;8.60;3.97;;;;;;;21.55;57.02;102278.00;5031148;28;20432;-42
2023/06/04 06:42:40;;;;;;;6.07;4.83;;;;;;;21.87;56.62;102285.63;5031865;28;20435;-46
2023/06/04 06:45:08;;;;;;;7.07;5.10;;;;;;;22.25;55.35;102284.41;5006087;28;20866;-45
2023/06/04 06:47:37;;;;;;;5.30;4.30;;;;;;;22.27;55.21;102293.13;5031489;28;20478;-43
2023/06/04 06:50:06;;;;;;;5.87;5.20;;;;;;;22.01;54.93;102287.09;5032408;28;20423;-48
2023/06/04 06:52:34;;;;;;;9.57;5.03;;;;;;;21.68;54.33;102294.13;5031626;28;20435;-43
2023/06/04 06:55:01;;;;;;;8.20;5.10;;;;;;;21.92;54.69;102291.22;5031153;28;20477;-42
2023/06/04 06:57:29;;;;;;;8.70;4.70;;;;;;;22.31;52.12;102297.84;5018720;28;20515;-45
2023/06/04 06:59:57;;;;;;;5.83;5.17;;;;;;;22.12;52.21;102299.06;5031266;28;20486;-45
2023/06/04 07:02:25;;;;;;;6.30;4.90;;;;;;;21.77;53.82;102298.97;5031092;28;20994;-44
2023/06/04 07:04:55;;;;;;;10.30;4.63;;;;;;;21.80;54.11;102290.34;5031969;28;20436;-43
2023/06/04 07:07:22;;;;;;;9.60;5.93;;;;;;;21.72;53.97;102298.00;5009015;28;21119;-44
2023/06/04 07:09:50;;;;;;;6.00;4.43;;;;;;;21.46;54.53;102302.78;5031120;28;20515;-45
2023/06/04 07:12:18;;;;;;;8.30;5.10;;;;;;;21.62;54.39;102300.47;5031669;28;20964;-42
2023/06/04 07:14:46;;;;;;;7.50;5.07;;;;;;;21.31;55.20;102301.53;5031753;28;20466;-42
2023/06/04 07:17:13;;;;;;;6.23;4.57;;;;;;;21.29;54.20;102301.78;5013802;28;20569;-45
2023/06/04 07:19:41;;;;;;;6.03;5.40;;;;;;;21.67;53.02;102303.31;5031504;28;20432;-45
2023/06/04 07:22:10;;;;;;;5.83;4.23;;;;;;;21.58;52.86;102307.41;5031086;28;20471;-45
2023/06/04 07:24:38;;;;;;;4.10;3.70;;;;;;;21.29;52.88;102312.63;5031092;28;20447;-42
2023/06/04 07:27:11;;;;;;;5.57;4.57;;;;;;;20.61;54.41;102308.44;5001447;28;20504;-44
2023/06/04 07:29:39;;;;;;;10.80;4.70;;;;;;;20.66;54.74;102320.25;5030976;28;20436;-43
2023/06/04 07:32:07;;;;;;;8.87;4.53;;;;;;;21.28;54.43;102319.09;5031510;28;20471;-45
2023/06/04 07:34:36;;;;;;;5.90;5.27;;;;;;;21.25;53.80;102316.03;5031700;28;20459;-46
2023/06/04 07:37:05;;;;;;;4.77;3.73;;;;;;;21.60;52.87;102313.44;5004056;28;20495;-45
2023/06/04 07:39:34;;;;;;;7.63;3.97;;;;;;;21.24;53.32;102323.31;5030758;28;20431;-43
2023/06/04 07:42:02;;;;;;;7.40;4.60;;;;;;;21.37;53.36;102323.16;5031012;28;20432;-44
2023/06/04 07:44:30;;;;;;;8.20;4.60;;;;;;;21.33;53.27;102319.25;5031087;28;20466;-43
2023/06/04 07:46:57;;;;;;;4.27;3.90;;;;;;;20.73;53.71;102321.00;5014374;28;20503;-43
2023/06/04 07:49:25;;;;;;;4.80;4.40;;;;;;;20.63;52.74;102322.59;5000720;28;20463;-43
2023/06/04 07:51:53;;;;;;;8.53;5.20;;;;;;;20.93;55.46;102316.19;5024839;28;20489;-43
2023/06/04 07:54:20;;;;;;;5.70;5.17;;;;;;;20.97;54.83;102314.66;5016882;28;20494;-43
2023/06/04 07:56:55;;;;;;;4.87;4.37;;;;;;;21.23;54.04;102310.84;5028237;28;20518;-44
2023/06/04 07:59:23;;;;;;;4.77;4.43;;;;;;;20.73;55.49;102315.56;5009509;28;20463;-43
2023/06/04 08:01:51;;;;;;;6.67;4.43;;;;;;;20.74;55.12;102313.69;5022507;28;20508;-43
2023/06/04 08:04:19;;;;;;;5.70;4.23;;;;;;;20.23;57.84;102322.09;5000928;28;20491;-43
2023/06/04 08:06:47;;;;;;;7.20;5.10;;;;;;;20.31;58.17;102321.84;5018345;28;20443;-43
2023/06/04 08:09:15;;;;;;;5.67;4.30;;;;;;;19.43;60.47;102315.63;5017748;28;20999;-45
2023/06/04 08:11:44;;;;;;;7.73;5.07;;;;;;;18.58;64.89;102321.31;5029459;28;20527;-46
2023/06/04 08:14:13;;;;;;;8.33;4.47;;;;;;;18.54;64.61;102314.69;5029047;28;20439;-43
2023/06/04 08:16:41;;;;;;;5.07;4.47;;;;;;;18.29;74.88;102319.03;5028808;28;20463;-48
2023/06/04 08:19:09;;;;;;;7.10;5.03;;;;;;;17.89;71.29;102312.84;5004402;28;20889;-45
2023/06/04 08:21:37;;;;;;;6.27;5.40;;;;;;;17.97;73.69;102305.38;5029754;28;20465;-43
2023/06/04 08:24:05;;;;;;;5.47;4.90;;;;;;;19.13;72.04;102309.09;5028554;28;20933;-44
2023/06/04 08:26:32;;;;;;;5.00;4.50;;;;;;;19.42;65.83;102316.66;5028156;28;20876;-44
2023/06/04 08:29:03;;;;;;;5.47;4.87;;;;;;;19.13;67.95;102309.91;5014786;28;20423;-42
2023/06/04 08:31:33;;;;;;;7.13;4.83;;;;;;;18.87;70.57;102309.19;4968466;28;20468;-42
2023/06/04 08:34:01;;;;;;;7.87;4.47;;;;;;;18.93;67.58;102313.75;5016270;28;20515;-43
2023/06/04 08:36:28;;;;;;;5.80;4.80;;;;;;;19.84;67.80;102317.84;5031470;28;20509;-44
2023/06/04 08:38:56;;;;;;;5.90;4.40;;;;;;;19.58;66.74;102315.31;5031556;28;20510;-42
2023/06/04 08:41:29;;;;;;;7.00;4.90;;;;;;;19.09;66.67;102318.66;5019649;28;20515;-44
2023/06/04 08:43:58;;;;;;;5.87;5.37;;;;;;;19.16;68.38;102319.47;5016406;28;20428;-46
2023/06/04 08:46:29;;;;;;;5.43;4.93;;;;;;;19.59;67.82;102312.38;5031609;28;20459;-43
2023/06/04 08:49:01;;;;;;;6.00;4.50;;;;;;;19.78;61.64;102321.41;5030527;28;20424;-41
2023/06/04 08:51:30;;;;;;;5.70;4.37;;;;;;;19.22;63.94;102324.84;5005631;28;20466;-42
2023/06/04 08:54:00;;;;;;;5.00;4.57;;;;;;;19.01;66.58;102317.03;5031064;28;20844;-42
2023/06/04 08:56:28;;;;;;;4.37;3.97;;;;;;;19.48;65.19;102317.66;5031677;28;20455;-42
2023/06/04 08:59:01;;;;;;;5.07;4.77;;;;;;;20.40;63.23;102323.22;5031354;28;21061;-47
2023/06/04 09:01:28;;;;;;;5.60;5.10;;;;;;;20.66;60.24;102317.53;5031248;28;20852;-44
2023/06/04 09:03:59;;;;;;;4.87;4.50;;;;;;;21.04;61.40;102313.75;5030936;28;20936;-43
2023/06/04 09:06:26;;;;;;;5.30;4.80;;;;;;;20.29;62.73;102322.09;5030908;28;20534;-43
2023/06/04 09:08:58;;;;;;;8.40;5.00;;;;;;;19.81;66.35;102321.00;5030901;28;20432;-46
2023/06/04 09:11:30;;;;;;;5.03;4.50;;;;;;;19.56;65.77;102317.44;4991565;28;21069;-42
2023/06/04 09:14:01;;;;;;;6.80;4.40;;;;;;;20.14;64.24;102318.84;5000610;28;20439;-43
2023/06/04 09:16:36;;;;;;;7.87;4.87;;;;;;;19.93;62.60;102321.94;5030993;28;20478;-42
2023/06/04 09:19:06;;;;;;;6.17;3.80;;;;;;;20.05;64.95;102317.47;5030769;28;20473;-43
2023/06/04 09:21:33;;;;;;;6.50;4.53;;;;;;;20.09;66.85;102324.13;5030860;28;20471;-42
2023/06/04 09:24:01;;;;;;;5.10;4.50;;;;;;;20.31;64.35;102324.56;5031216;28;20443;-45
2023/06/04 09:26:29;;;;;;;8.10;5.03;;;;;;;19.96;66.19;102318.78;5030491;28;20521;-44
2023/06/04 09:28:59;;;;;;;8.37;4.73;;;;;;;19.51;70.91;102315.34;5027683;28;20921;-49
2023/06/04 09:31:28;;;;;;;11.10;5.63;;;;;;;18.73;74.45;102313.78;5019374;28;20531;-46
2023/06/04 09:33:56;;;;;;;6.90;5.17;;;;;;;18.93;80.27;102316.47;5005273;28;20537;-47
2023/06/04 09:36:31;;;;;;;5.40;5.00;;;;;;;19.23;73.75;102318.38;5004590;28;20459;-47
2023/06/04 09:38:58;;;;;;;5.23;4.73;;;;;;;18.46;86.65;102318.41;5005139;28;20503;-43
2023/06/04 09:41:27;;;;;;;5.27;4.70;;;;;;;18.58;79.60;102319.44;4993085;28;20838;-43
2023/06/04 09:44:02;;;;;;;5.30;4.43;;;;;;;18.74;77.74;102315.47;5013985;28;20459;-43
2023/06/04 09:46:31;;;;;;;4.73;4.40;;;;;;;18.67;76.51;102320.88;5030063;28;20526;-49
2023/06/04 09:49:03;;;;;;;5.33;4.90;;;;;;;18.78;75.37;102314.84;5030679;28;20456;-44
2023/06/04 09:51:33;;;;;;;5.10;4.60;;;;;;;19.91;70.93;102321.34;5030624;28;20462;-45
2023/06/04 09:54:03;;;;;;;6.67;4.20;;;;;;;20.04;68.58;102318.50;5030315;28;20439;-43
2023/06/04 09:56:40;;;;;;;4.43;4.10;;;;;;;19.53;71.22;102323.28;5025349;28;20457;-46
2023/06/04 09:59:10;;;;;;;3.90;3.60;;;;;;;19.68;73.63;102323.81;5010372;28;20558;-45
2023/06/04 10:01:40;;;;;;;5.27;4.53;;;;;;;19.09;71.72;102329.47;5014882;28;20830;-45
2023/06/04 10:04:11;;;;;;;5.87;4.27;;;;;;;19.20;73.70;102328.81;5014350;28;20524;-44
2023/06/04 10:06:42;;;;;;;4.70;4.30;;;;;;;19.19;70.50;102325.28;5014926;28;20457;-43
2023/06/04 10:09:11;;;;;;;6.10;4.43;;;;;;;18.61;72.22;102329.84;5014985;28;20424;-49
2023/06/04 10:11:44;;;;;;;4.80;4.13;;;;;;;18.93;75.34;102316.47;5014103;28;20432;-44
2023/06/04 10:14:20;;;;;;;4.43;3.90;;;;;;;19.07;68.61;102324.28;5014859;28;20448;-43
2023/06/04 10:16:49;;;;;;;4.53;4.03;;;;;;;19.41;69.82;102314.19;5014526;28;20538;-46
2023/06/04 10:19:19;;;;;;;4.70;3.67;;;;;;;19.49;73.09;102320.16;5014708;28;20475;-45
2023/06/04 10:21:48;;;;;;;4.00;3.70;;;;;;;19.71;73.12;102323.38;5014348;28;20951;-44
2023/06/04 10:24:17;;;;;;;4.43;4.10;;;;;;;19.59;72.42;102319.69;5017074;28;20459;-42
2023/06/04 10:26:45;;;;;;;4.20;3.90;;;;;;;19.62;67.29;102314.66;5031771;28;20452;-43
2023/06/04 10:29:15;;;;;;;4.80;4.47;;;;;;;20.14;69.05;102321.56;5032739;28;20427;-43
2023/06/04 10:31:44;;;;;;;6.23;4.73;;;;;;;19.85;67.66;102324.94;5033528;28;20771;-43
2023/06/04 10:34:13;;;;;;;8.67;4.30;;;;;;;19.85;68.90;102320.34;5025329;28;20507;-45
2023/06/04 10:36:44;;;;;;;6.90;4.10;;;;;;;19.89;68.28;102315.31;5033863;28;20997;-45
2023/06/04 10:39:14;;;;;;;5.00;4.00;;;;;;;20.00;70.06;102320.03;5034036;28;20471;-46
2023/06/04 10:41:42;;;;;;;4.10;3.77;;;;;;;20.63;67.47;102328.00;5034134;28;20423;-45
2023/06/04 10:44:12;;;;;;;5.43;4.57;;;;;;;21.17;65.62;102321.78;5033099;28;20497;-45
2023/06/04 10:46:42;;;;;;;7.40;4.23;;;;;;;21.61;61.41;102328.66;5033590;28;20448;-46
2023/06/04 10:49:11;;;;;;;4.23;4.03;;;;;;;21.63;57.67;102318.41;5034090;28;20430;-48
2023/06/04 10:51:40;;;;;;;8.60;4.83;;;;;;;21.10;58.23;102323.72;5033568;28;20493;-44
2023/06/04 10:54:08;;;;;;;7.37;4.10;;;;;;;21.12;61.39;102327.03;5033429;28;20466;-45
2023/06/04 10:56:37;;;;;;;4.90;4.00;;;;;;;21.02;62.75;102330.28;5033846;28;20454;-47
2023/06/04 10:59:16;;;;;;;6.97;4.27;;;;;;;20.09;66.75;102336.81;5032968;28;20483;-45
2023/06/04 11:01:45;;;;;;;5.70;4.43;;;;;;;19.96;64.00;102340.44;5033646;28;20432;-45
2023/06/04 11:04:21;;;;;;;8.60;4.50;;;;;;;20.30;64.57;102340.00;5032813;28;20530;-46
2023/06/04 11:06:49;;;;;;;4.80;4.40;;;;;;;19.91;65.06;102334.88;5034010;28;20509;-45
2023/06/04 11:09:18;;;;;;;5.77;4.50;;;;;;;19.42;69.68;102327.47;5033688;28;20501;-44
2023/06/04 11:11:58;;;;;;;5.63;4.40;;;;;;;19.64;72.04;102334.22;5032087;28;20428;-45
2023/06/04 11:14:26;;;;;;;6.77;5.20;;;;;;;20.19;70.67;102331.75;5032981;28;20554;-43
2023/06/04 11:16:54;;;;;;;4.40;4.00;;;;;;;21.48;66.55;102327.81;5033463;28;20463;-45
2023/06/04 11:19:22;;;;;;;6.00;4.03;;;;;;;21.58;65.29;102323.69;5033469;28;20475;-44
2023/06/04 11:21:50;;;;;;;5.60;4.13;;;;;;;21.90;64.26;102325.94;5033204;28;20558;-46
2023/06/04 11:24:18;;;;;;;6.77;5.93;;;;;;;21.84;63.70;102321.41;5033081;28;20464;-47
2023/06/04 11:26:47;;;;;;;6.37;4.60;;;;;;;21.42;63.59;102334.16;5033624;28;20439;-44
2023/06/04 11:29:37;;;;;;;5.07;4.77;;;;;;;21.32;63.07;102330.34;5032169;28;21008;-44
2023/06/04 11:32:05;;;;;;;5.93;5.30;;;;;;;20.32;68.12;102324.34;5032407;28;20849;-43